sensor_id;sensor_type;location;lat;lon;timestamp;P1;durP1;ratioP1;P2;durP2;ratioP2
5774;SDS011;2913;51.120;6.772;2023-10-08T00:00:43;1999.90;;;725.63;;
5774;SDS011;2913;51.120;6.772;2023-10-08T00:03:14;1999.90;;;714.58;;
5774;SDS011;2913;51.120;6.772;2023-10-08T00:05:42;1999.90;;;717.30;;
5774;SDS011;2913;51.120;6.772;2023-10-08T00:08:08;1999.90;;;713.55;;
5774;SDS011;2913;51.120;6.772;2023-10-08T00:10:38;1999.90;;;716.42;;
5774;SDS011;2913;51.120;6.772;2023-10-08T00:13:08;1999.90;;;714.92;;
5774;SDS011;2913;51.120;6.772;2023-10-08T00:15:35;1999.90;;;717.70;;
5774;SDS011;2913;51.120;6.772;2023-10-08T00:18:04;1999.90;;;714.30;;
5774;SDS011;2913;51.120;6.772;2023-10-08T00:20:35;1999.90;;;731.80;;
5774;SDS011;2913;51.120;6.772;2023-10-08T00:23:12;1999.90;;;702.90;;
5774;SDS011;2913;51.120;6.772;2023-10-08T00:25:40;1999.90;;;707.30;;
5774;SDS011;2913;51.120;6.772;2023-10-08T00:28:07;1999.90;;;723.40;;
5774;SDS011;2913;51.120;6.772;2023-10-08T00:30:38;1999.90;;;723.03;;
5774;SDS011;2913;51.120;6.772;2023-10-08T00:33:07;1999.90;;;725.75;;
5774;SDS011;2913;51.120;6.772;2023-10-08T00:35:37;1999.90;;;726.60;;
5774;SDS011;2913;51.120;6.772;2023-10-08T00:38:04;1999.90;;;728.70;;
5774;SDS011;2913;51.120;6.772;2023-10-08T00:40:37;1999.90;;;732.25;;
5774;SDS011;2913;51.120;6.772;2023-10-08T00:43:05;1999.90;;;770.65;;
5774;SDS011;2913;51.120;6.772;2023-10-08T00:45:38;1999.90;;;762.28;;
5774;SDS011;2913;51.120;6.772;2023-10-08T00:48:11;1999.90;;;745.47;;
5774;SDS011;2913;51.120;6.772;2023-10-08T00:50:42;1999.90;;;740.88;;
5774;SDS011;2913;51.120;6.772;2023-10-08T00:53:11;1999.90;;;730.50;;
5774;SDS011;2913;51.120;6.772;2023-10-08T00:55:47;1999.90;;;719.15;;
5774;SDS011;2913;51.120;6.772;2023-10-08T00:58:24;1999.90;;;696.85;;
5774;SDS011;2913;51.120;6.772;2023-10-08T01:00:51;1999.90;;;677.42;;
5774;SDS011;2913;51.120;6.772;2023-10-08T01:03:24;1999.90;;;675.60;;
5774;SDS011;2913;51.120;6.772;2023-10-08T01:05:52;1999.90;;;658.50;;
5774;SDS011;2913;51.120;6.772;2023-10-08T01:08:19;1999.90;;;681.33;;
5774;SDS011;2913;51.120;6.772;2023-10-08T01:10:59;1999.90;;;685.47;;
5774;SDS011;2913;51.120;6.772;2023-10-08T01:13:40;1999.90;;;681.38;;
5774;SDS011;2913;51.120;6.772;2023-10-08T01:16:10;1999.90;;;681.78;;
5774;SDS011;2913;51.120;6.772;2023-10-08T01:18:40;1999.90;;;688.72;;
5774;SDS011;2913;51.120;6.772;2023-10-08T01:21:11;1999.90;;;678.55;;
5774;SDS011;2913;51.120;6.772;2023-10-08T01:26:12;1999.90;;;668.40;;
5774;SDS011;2913;51.120;6.772;2023-10-08T01:28:40;1999.90;;;681.40;;
5774;SDS011;2913;51.120;6.772;2023-10-08T01:31:08;1999.90;;;666.05;;
5774;SDS011;2913;51.120;6.772;2023-10-08T01:33:37;1999.90;;;674.88;;
5774;SDS011;2913;51.120;6.772;2023-10-08T01:36:03;1999.90;;;680.88;;
5774;SDS011;2913;51.120;6.772;2023-10-08T01:38:30;1999.90;;;675.42;;
5774;SDS011;2913;51.120;6.772;2023-10-08T01:40:58;1999.90;;;645.70;;
5774;SDS011;2913;51.120;6.772;2023-10-08T01:43:35;1999.90;;;648.55;;
5774;SDS011;2913;51.120;6.772;2023-10-08T01:46:03;1999.90;;;668.35;;
5774;SDS011;2913;51.120;6.772;2023-10-08T01:48:36;1999.90;;;661.28;;
5774;SDS011;2913;51.120;6.772;2023-10-08T01:51:07;1999.90;;;658.17;;
5774;SDS011;2913;51.120;6.772;2023-10-08T01:53:37;1999.90;;;650.25;;
5774;SDS011;2913;51.120;6.772;2023-10-08T01:56:06;1999.90;;;645.20;;
5774;SDS011;2913;51.120;6.772;2023-10-08T01:58:35;1999.90;;;655.92;;
5774;SDS011;2913;51.120;6.772;2023-10-08T02:01:03;1999.90;;;626.13;;
5774;SDS011;2913;51.120;6.772;2023-10-08T02:03:30;1999.90;;;621.30;;
5774;SDS011;2913;51.120;6.772;2023-10-08T02:05:56;1999.90;;;623.85;;
5774;SDS011;2913;51.120;6.772;2023-10-08T02:08:24;1999.90;;;640.05;;
5774;SDS011;2913;51.120;6.772;2023-10-08T02:10:51;1999.90;;;643.42;;
5774;SDS011;2913;51.120;6.772;2023-10-08T02:13:17;1999.90;;;718.50;;
5774;SDS011;2913;51.120;6.772;2023-10-08T02:15:44;1999.90;;;678.92;;
5774;SDS011;2913;51.120;6.772;2023-10-08T02:20:44;1999.90;;;632.47;;
5774;SDS011;2913;51.120;6.772;2023-10-08T02:23:10;1999.90;;;630.15;;
5774;SDS011;2913;51.120;6.772;2023-10-08T02:25:39;1999.90;;;632.58;;
5774;SDS011;2913;51.120;6.772;2023-10-08T02:28:09;1999.90;;;632.80;;
5774;SDS011;2913;51.120;6.772;2023-10-08T02:30:40;1999.90;;;620.13;;
5774;SDS011;2913;51.120;6.772;2023-10-08T02:33:06;1999.90;;;624.17;;
5774;SDS011;2913;51.120;6.772;2023-10-08T02:35:43;1999.90;;;628.85;;
5774;SDS011;2913;51.120;6.772;2023-10-08T02:38:11;1999.90;;;619.65;;
5774;SDS011;2913;51.120;6.772;2023-10-08T02:40:38;1999.90;;;610.22;;
5774;SDS011;2913;51.120;6.772;2023-10-08T02:43:09;1999.90;;;599.92;;
5774;SDS011;2913;51.120;6.772;2023-10-08T02:45:36;1999.90;;;605.30;;
5774;SDS011;2913;51.120;6.772;2023-10-08T02:48:06;1999.90;;;616.90;;
5774;SDS011;2913;51.120;6.772;2023-10-08T02:50:43;1999.90;;;585.33;;
5774;SDS011;2913;51.120;6.772;2023-10-08T02:53:10;1999.90;;;628.38;;
5774;SDS011;2913;51.120;6.772;2023-10-08T02:55:37;1999.90;;;648.55;;
5774;SDS011;2913;51.120;6.772;2023-10-08T02:58:17;1999.90;;;652.70;;
5774;SDS011;2913;51.120;6.772;2023-10-08T03:00:45;1999.90;;;627.05;;
5774;SDS011;2913;51.120;6.772;2023-10-08T03:03:13;1999.90;;;646.42;;
5774;SDS011;2913;51.120;6.772;2023-10-08T03:05:49;1999.90;;;652.60;;
5774;SDS011;2913;51.120;6.772;2023-10-08T03:08:23;1999.90;;;636.15;;
5774;SDS011;2913;51.120;6.772;2023-10-08T03:10:55;1999.90;;;647.55;;
5774;SDS011;2913;51.120;6.772;2023-10-08T03:13:27;1999.90;;;647.13;;
5774;SDS011;2913;51.120;6.772;2023-10-08T03:15:53;1999.90;;;662.25;;
5774;SDS011;2913;51.120;6.772;2023-10-08T03:18:28;1999.90;;;663.28;;
5774;SDS011;2913;51.120;6.772;2023-10-08T03:21:04;1999.90;;;688.22;;
5774;SDS011;2913;51.120;6.772;2023-10-08T03:23:38;1999.90;;;659.88;;
5774;SDS011;2913;51.120;6.772;2023-10-08T03:26:12;1999.90;;;656.45;;
5774;SDS011;2913;51.120;6.772;2023-10-08T03:28:57;1999.90;;;661.80;;
5774;SDS011;2913;51.120;6.772;2023-10-08T03:31:25;1999.90;;;654.08;;
5774;SDS011;2913;51.120;6.772;2023-10-08T03:34:12;1999.90;;;657.13;;
5774;SDS011;2913;51.120;6.772;2023-10-08T03:36:40;1999.90;;;684.42;;
5774;SDS011;2913;51.120;6.772;2023-10-08T03:39:16;1999.90;;;652.60;;
5774;SDS011;2913;51.120;6.772;2023-10-08T03:41:45;1999.90;;;685.80;;
5774;SDS011;2913;51.120;6.772;2023-10-08T03:44:31;1999.90;;;649.83;;
5774;SDS011;2913;51.120;6.772;2023-10-08T03:47:02;1999.90;;;656.30;;
5774;SDS011;2913;51.120;6.772;2023-10-08T03:49:35;1999.90;;;665.50;;
5774;SDS011;2913;51.120;6.772;2023-10-08T03:52:09;1999.90;;;634.30;;
5774;SDS011;2913;51.120;6.772;2023-10-08T03:54:40;1999.90;;;668.08;;
5774;SDS011;2913;51.120;6.772;2023-10-08T03:59:50;1999.90;;;649.65;;
5774;SDS011;2913;51.120;6.772;2023-10-08T04:02:22;1999.90;;;636.00;;
5774;SDS011;2913;51.120;6.772;2023-10-08T04:05:04;1999.90;;;658.00;;
5774;SDS011;2913;51.120;6.772;2023-10-08T04:07:45;1999.90;;;657.42;;
5774;SDS011;2913;51.120;6.772;2023-10-08T04:10:32;1999.90;;;646.13;;
5774;SDS011;2913;51.120;6.772;2023-10-08T04:13:06;1999.90;;;631.35;;
5774;SDS011;2913;51.120;6.772;2023-10-08T04:15:38;1999.90;;;647.58;;
5774;SDS011;2913;51.120;6.772;2023-10-08T04:18:07;1999.90;;;674.53;;
5774;SDS011;2913;51.120;6.772;2023-10-08T04:20:36;1999.90;;;637.08;;
5774;SDS011;2913;51.120;6.772;2023-10-08T04:23:05;1999.90;;;640.28;;
5774;SDS011;2913;51.120;6.772;2023-10-08T04:25:38;1999.90;;;639.30;;
5774;SDS011;2913;51.120;6.772;2023-10-08T04:28:04;1999.90;;;628.42;;
5774;SDS011;2913;51.120;6.772;2023-10-08T04:30:35;1999.90;;;662.17;;
5774;SDS011;2913;51.120;6.772;2023-10-08T04:35:36;1999.90;;;652.22;;
5774;SDS011;2913;51.120;6.772;2023-10-08T04:38:13;1999.90;;;639.35;;
5774;SDS011;2913;51.120;6.772;2023-10-08T04:40:42;1999.90;;;636.53;;
5774;SDS011;2913;51.120;6.772;2023-10-08T04:43:13;1999.90;;;637.40;;
5774;SDS011;2913;51.120;6.772;2023-10-08T04:45:47;1999.90;;;625.92;;
5774;SDS011;2913;51.120;6.772;2023-10-08T04:48:14;1999.90;;;585.90;;
5774;SDS011;2913;51.120;6.772;2023-10-08T04:50:45;1999.90;;;607.85;;
5774;SDS011;2913;51.120;6.772;2023-10-08T04:53:32;1999.90;;;619.08;;
5774;SDS011;2913;51.120;6.772;2023-10-08T04:56:06;1999.90;;;676.22;;
5774;SDS011;2913;51.120;6.772;2023-10-08T04:58:38;1999.90;;;623.10;;
5774;SDS011;2913;51.120;6.772;2023-10-08T05:01:11;1999.90;;;619.22;;
5774;SDS011;2913;51.120;6.772;2023-10-08T05:03:50;1999.90;;;636.83;;
5774;SDS011;2913;51.120;6.772;2023-10-08T05:06:23;1999.90;;;648.17;;
5774;SDS011;2913;51.120;6.772;2023-10-08T05:09:05;1999.90;;;644.05;;
5774;SDS011;2913;51.120;6.772;2023-10-08T05:11:38;1999.90;;;616.00;;
5774;SDS011;2913;51.120;6.772;2023-10-08T05:14:22;1999.90;;;620.30;;
5774;SDS011;2913;51.120;6.772;2023-10-08T05:16:57;1999.90;;;628.03;;
5774;SDS011;2913;51.120;6.772;2023-10-08T05:19:39;1999.90;;;594.97;;
5774;SDS011;2913;51.120;6.772;2023-10-08T05:22:26;1999.90;;;594.78;;
5774;SDS011;2913;51.120;6.772;2023-10-08T05:24:54;1928.95;;;545.03;;
5774;SDS011;2913;51.120;6.772;2023-10-08T05:27:43;1978.43;;;552.58;;
5774;SDS011;2913;51.120;6.772;2023-10-08T05:30:21;1999.90;;;607.50;;
5774;SDS011;2913;51.120;6.772;2023-10-08T05:32:57;1999.90;;;595.55;;
5774;SDS011;2913;51.120;6.772;2023-10-08T05:35:39;1999.90;;;586.03;;
5774;SDS011;2913;51.120;6.772;2023-10-08T05:38:08;1999.90;;;614.33;;
5774;SDS011;2913;51.120;6.772;2023-10-08T05:41:06;1999.90;;;601.30;;
5774;SDS011;2913;51.120;6.772;2023-10-08T05:43:52;1999.90;;;621.80;;
5774;SDS011;2913;51.120;6.772;2023-10-08T05:46:37;1999.90;;;605.72;;
5774;SDS011;2913;51.120;6.772;2023-10-08T05:49:22;1984.85;;;540.45;;
5774;SDS011;2913;51.120;6.772;2023-10-08T05:51:57;1999.90;;;553.60;;
5774;SDS011;2913;51.120;6.772;2023-10-08T05:54:32;1895.10;;;516.28;;
5774;SDS011;2913;51.120;6.772;2023-10-08T05:59:54;1850.60;;;503.58;;
5774;SDS011;2913;51.120;6.772;2023-10-08T06:02:20;1893.85;;;517.08;;
5774;SDS011;2913;51.120;6.772;2023-10-08T06:04:58;1886.43;;;514.10;;
5774;SDS011;2913;51.120;6.772;2023-10-08T06:07:39;1890.35;;;512.42;;
5774;SDS011;2913;51.120;6.772;2023-10-08T06:10:18;1711.18;;;465.05;;
5774;SDS011;2913;51.120;6.772;2023-10-08T06:18:24;1859.82;;;505.02;;
5774;SDS011;2913;51.120;6.772;2023-10-08T06:23:37;1931.38;;;522.42;;
5774;SDS011;2913;51.120;6.772;2023-10-08T06:26:07;1999.90;;;541.58;;
5774;SDS011;2913;51.120;6.772;2023-10-08T06:28:35;1851.43;;;506.55;;
5774;SDS011;2913;51.120;6.772;2023-10-08T06:31:03;1824.80;;;500.70;;
5774;SDS011;2913;51.120;6.772;2023-10-08T06:33:37;1832.07;;;502.92;;
5774;SDS011;2913;51.120;6.772;2023-10-08T06:36:06;1865.78;;;512.45;;
5774;SDS011;2913;51.120;6.772;2023-10-08T06:38:38;1844.13;;;507.03;;
5774;SDS011;2913;51.120;6.772;2023-10-08T06:41:05;1841.68;;;506.70;;
5774;SDS011;2913;51.120;6.772;2023-10-08T06:46:03;1289.97;;;355.30;;
5774;SDS011;2913;51.120;6.772;2023-10-08T06:48:32;1356.40;;;372.08;;
5774;SDS011;2913;51.120;6.772;2023-10-08T06:51:00;1431.03;;;393.48;;
5774;SDS011;2913;51.120;6.772;2023-10-08T06:53:33;1446.15;;;394.90;;
5774;SDS011;2913;51.120;6.772;2023-10-08T06:55:59;1549.53;;;424.77;;
5774;SDS011;2913;51.120;6.772;2023-10-08T06:58:32;1665.00;;;460.45;;
5774;SDS011;2913;51.120;6.772;2023-10-08T07:00:58;1780.78;;;490.67;;
5774;SDS011;2913;51.120;6.772;2023-10-08T07:03:30;1674.10;;;455.48;;
5774;SDS011;2913;51.120;6.772;2023-10-08T07:05:58;1764.32;;;484.77;;
5774;SDS011;2913;51.120;6.772;2023-10-08T07:08:25;1732.00;;;472.92;;
5774;SDS011;2913;51.120;6.772;2023-10-08T07:10:56;1804.28;;;492.02;;
5774;SDS011;2913;51.120;6.772;2023-10-08T07:13:24;1832.47;;;500.63;;
5774;SDS011;2913;51.120;6.772;2023-10-08T07:15:50;1852.70;;;504.27;;
5774;SDS011;2913;51.120;6.772;2023-10-08T07:18:17;1858.88;;;504.35;;
5774;SDS011;2913;51.120;6.772;2023-10-08T07:23:22;1821.47;;;498.90;;
5774;SDS011;2913;51.120;6.772;2023-10-08T07:28:43;1919.78;;;523.20;;
5774;SDS011;2913;51.120;6.772;2023-10-08T07:31:15;1973.38;;;535.53;;
5774;SDS011;2913;51.120;6.772;2023-10-08T07:33:45;1999.90;;;565.38;;
5774;SDS011;2913;51.120;6.772;2023-10-08T07:36:21;1999.90;;;619.65;;
5774;SDS011;2913;51.120;6.772;2023-10-08T07:38:56;1999.90;;;563.90;;
5774;SDS011;2913;51.120;6.772;2023-10-08T07:41:22;1999.90;;;541.92;;
5774;SDS011;2913;51.120;6.772;2023-10-08T07:43:48;1999.90;;;553.58;;
5774;SDS011;2913;51.120;6.772;2023-10-08T07:46:21;1999.90;;;547.20;;
5774;SDS011;2913;51.120;6.772;2023-10-08T07:48:51;1999.90;;;566.47;;
5774;SDS011;2913;51.120;6.772;2023-10-08T07:51:22;1999.90;;;547.95;;
5774;SDS011;2913;51.120;6.772;2023-10-08T07:53:49;1999.90;;;566.28;;
5774;SDS011;2913;51.120;6.772;2023-10-08T07:56:19;1983.22;;;530.47;;
5774;SDS011;2913;51.120;6.772;2023-10-08T07:58:47;1999.90;;;538.78;;
5774;SDS011;2913;51.120;6.772;2023-10-08T08:01:15;1796.75;;;482.63;;
5774;SDS011;2913;51.120;6.772;2023-10-08T08:03:41;1891.90;;;513.42;;
5774;SDS011;2913;51.120;6.772;2023-10-08T08:06:08;1903.03;;;517.15;;
5774;SDS011;2913;51.120;6.772;2023-10-08T08:08:37;1954.50;;;528.13;;
5774;SDS011;2913;51.120;6.772;2023-10-08T08:11:07;1992.88;;;537.80;;
5774;SDS011;2913;51.120;6.772;2023-10-08T08:13:39;1999.90;;;563.63;;
5774;SDS011;2913;51.120;6.772;2023-10-08T08:16:08;1999.90;;;566.90;;
5774;SDS011;2913;51.120;6.772;2023-10-08T08:18:48;1999.90;;;611.85;;
5774;SDS011;2913;51.120;6.772;2023-10-08T08:21:18;1999.90;;;599.33;;
5774;SDS011;2913;51.120;6.772;2023-10-08T08:23:47;1983.38;;;535.47;;
5774;SDS011;2913;51.120;6.772;2023-10-08T08:26:17;1966.47;;;532.83;;
5774;SDS011;2913;51.120;6.772;2023-10-08T08:28:57;1930.28;;;522.42;;
5774;SDS011;2913;51.120;6.772;2023-10-08T08:31:27;1867.47;;;507.40;;
5774;SDS011;2913;51.120;6.772;2023-10-08T08:34:00;1744.30;;;474.35;;
5774;SDS011;2913;51.120;6.772;2023-10-08T08:36:42;1799.38;;;493.42;;
5774;SDS011;2913;51.120;6.772;2023-10-08T08:39:14;1811.88;;;494.92;;
5774;SDS011;2913;51.120;6.772;2023-10-08T08:42:00;1792.38;;;492.95;;
5774;SDS011;2913;51.120;6.772;2023-10-08T08:44:29;1813.73;;;496.10;;
5774;SDS011;2913;51.120;6.772;2023-10-08T08:47:00;1847.72;;;504.38;;
5774;SDS011;2913;51.120;6.772;2023-10-08T08:52:02;1764.82;;;481.88;;
5774;SDS011;2913;51.120;6.772;2023-10-08T08:54:32;1887.25;;;512.67;;
5774;SDS011;2913;51.120;6.772;2023-10-08T08:56:59;1998.70;;;534.92;;
5774;SDS011;2913;51.120;6.772;2023-10-08T08:59:29;1999.90;;;574.97;;
5774;SDS011;2913;51.120;6.772;2023-10-08T09:02:01;1999.90;;;537.17;;
5774;SDS011;2913;51.120;6.772;2023-10-08T09:04:32;1999.90;;;536.92;;
5774;SDS011;2913;51.120;6.772;2023-10-08T09:07:00;1999.90;;;571.65;;
5774;SDS011;2913;51.120;6.772;2023-10-08T09:09:33;1976.38;;;523.90;;
5774;SDS011;2913;51.120;6.772;2023-10-08T09:12:00;1943.50;;;517.60;;
5774;SDS011;2913;51.120;6.772;2023-10-08T09:14:26;1938.28;;;513.92;;
5774;SDS011;2913;51.120;6.772;2023-10-08T09:16:56;1909.43;;;505.10;;
5774;SDS011;2913;51.120;6.772;2023-10-08T09:19:27;1795.93;;;476.70;;
5774;SDS011;2913;51.120;6.772;2023-10-08T09:22:15;1864.15;;;485.35;;
5774;SDS011;2913;51.120;6.772;2023-10-08T09:24:44;1761.57;;;458.00;;
5774;SDS011;2913;51.120;6.772;2023-10-08T09:27:12;1999.90;;;534.13;;
5774;SDS011;2913;51.120;6.772;2023-10-08T09:29:43;1937.30;;;509.75;;
5774;SDS011;2913;51.120;6.772;2023-10-08T09:32:12;1818.35;;;482.85;;
5774;SDS011;2913;51.120;6.772;2023-10-08T09:34:39;1869.32;;;498.08;;
5774;SDS011;2913;51.120;6.772;2023-10-08T09:37:08;1741.05;;;459.77;;
5774;SDS011;2913;51.120;6.772;2023-10-08T09:39:36;1794.28;;;482.95;;
5774;SDS011;2913;51.120;6.772;2023-10-08T09:42:03;1755.78;;;468.38;;
5774;SDS011;2913;51.120;6.772;2023-10-08T09:44:33;1764.57;;;469.65;;
5774;SDS011;2913;51.120;6.772;2023-10-08T09:47:04;1799.93;;;481.05;;
5774;SDS011;2913;51.120;6.772;2023-10-08T09:52:48;1732.68;;;464.40;;
5774;SDS011;2913;51.120;6.772;2023-10-08T09:55:22;1760.32;;;465.95;;
5774;SDS011;2913;51.120;6.772;2023-10-08T09:57:48;1859.72;;;486.17;;
5774;SDS011;2913;51.120;6.772;2023-10-08T10:00:16;1906.00;;;498.83;;
5774;SDS011;2913;51.120;6.772;2023-10-08T10:02:54;1999.90;;;542.67;;
5774;SDS011;2913;51.120;6.772;2023-10-08T10:05:20;1951.95;;;509.73;;
5774;SDS011;2913;51.120;6.772;2023-10-08T10:07:49;1861.93;;;488.23;;
5774;SDS011;2913;51.120;6.772;2023-10-08T10:10:27;1928.15;;;502.50;;
5774;SDS011;2913;51.120;6.772;2023-10-08T10:13:03;1835.30;;;474.30;;
5774;SDS011;2913;51.120;6.772;2023-10-08T10:15:32;1999.90;;;588.33;;
5774;SDS011;2913;51.120;6.772;2023-10-08T10:18:11;1999.90;;;620.42;;
5774;SDS011;2913;51.120;6.772;2023-10-08T10:20:59;1999.90;;;631.63;;
5774;SDS011;2913;51.120;6.772;2023-10-08T10:23:45;1999.90;;;634.97;;
5774;SDS011;2913;51.120;6.772;2023-10-08T10:26:22;1999.90;;;641.78;;
5774;SDS011;2913;51.120;6.772;2023-10-08T10:31:43;1999.90;;;635.35;;
5774;SDS011;2913;51.120;6.772;2023-10-08T10:34:15;1999.90;;;637.78;;
5774;SDS011;2913;51.120;6.772;2023-10-08T10:36:45;1999.90;;;669.05;;
5774;SDS011;2913;51.120;6.772;2023-10-08T10:39:15;1999.90;;;695.90;;
5774;SDS011;2913;51.120;6.772;2023-10-08T10:41:51;1999.90;;;707.72;;
5774;SDS011;2913;51.120;6.772;2023-10-08T10:44:22;1999.90;;;698.10;;
5774;SDS011;2913;51.120;6.772;2023-10-08T10:46:49;1999.90;;;699.30;;
5774;SDS011;2913;51.120;6.772;2023-10-08T10:49:37;1999.90;;;702.70;;
5774;SDS011;2913;51.120;6.772;2023-10-08T10:52:26;1999.90;;;711.20;;
5774;SDS011;2913;51.120;6.772;2023-10-08T10:55:17;1999.90;;;719.80;;
5774;SDS011;2913;51.120;6.772;2023-10-08T11:00:20;1999.90;;;720.83;;
5774;SDS011;2913;51.120;6.772;2023-10-08T11:03:01;1999.90;;;709.47;;
5774;SDS011;2913;51.120;6.772;2023-10-08T11:05:29;1999.90;;;715.83;;
5774;SDS011;2913;51.120;6.772;2023-10-08T11:07:56;1999.90;;;726.83;;
5774;SDS011;2913;51.120;6.772;2023-10-08T11:10:33;1999.90;;;723.80;;
5774;SDS011;2913;51.120;6.772;2023-10-08T11:13:06;1999.90;;;719.95;;
5774;SDS011;2913;51.120;6.772;2023-10-08T11:15:39;1999.90;;;721.85;;
5774;SDS011;2913;51.120;6.772;2023-10-08T11:18:14;1999.90;;;711.95;;
5774;SDS011;2913;51.120;6.772;2023-10-08T11:20:44;1999.90;;;730.88;;
5774;SDS011;2913;51.120;6.772;2023-10-08T11:23:11;1999.90;;;702.42;;
5774;SDS011;2913;51.120;6.772;2023-10-08T11:26:02;1999.90;;;707.97;;
5774;SDS011;2913;51.120;6.772;2023-10-08T11:28:32;1999.90;;;719.97;;
5774;SDS011;2913;51.120;6.772;2023-10-08T11:31:07;1999.90;;;714.70;;
5774;SDS011;2913;51.120;6.772;2023-10-08T11:33:36;1999.90;;;738.55;;
5774;SDS011;2913;51.120;6.772;2023-10-08T11:36:05;1999.90;;;719.08;;
5774;SDS011;2913;51.120;6.772;2023-10-08T11:38:45;1999.90;;;726.92;;
5774;SDS011;2913;51.120;6.772;2023-10-08T11:41:15;1999.90;;;706.72;;
5774;SDS011;2913;51.120;6.772;2023-10-08T11:46:29;1999.90;;;727.88;;
5774;SDS011;2913;51.120;6.772;2023-10-08T11:49:05;1999.90;;;711.15;;
5774;SDS011;2913;51.120;6.772;2023-10-08T11:51:31;1999.90;;;728.20;;
5774;SDS011;2913;51.120;6.772;2023-10-08T11:53:58;1999.90;;;722.92;;
5774;SDS011;2913;51.120;6.772;2023-10-08T11:56:28;1999.90;;;733.35;;
5774;SDS011;2913;51.120;6.772;2023-10-08T11:58:54;1999.90;;;719.30;;
5774;SDS011;2913;51.120;6.772;2023-10-08T12:01:22;1999.90;;;726.78;;
5774;SDS011;2913;51.120;6.772;2023-10-08T12:03:49;1999.90;;;727.35;;
5774;SDS011;2913;51.120;6.772;2023-10-08T12:06:15;1999.90;;;736.92;;
5774;SDS011;2913;51.120;6.772;2023-10-08T12:08:43;1999.90;;;760.38;;
5774;SDS011;2913;51.120;6.772;2023-10-08T12:11:11;1999.90;;;796.90;;
5774;SDS011;2913;51.120;6.772;2023-10-08T12:13:40;1999.90;;;775.47;;
5774;SDS011;2913;51.120;6.772;2023-10-08T12:16:15;1999.90;;;739.90;;
5774;SDS011;2913;51.120;6.772;2023-10-08T12:18:48;1999.90;;;750.83;;
5774;SDS011;2913;51.120;6.772;2023-10-08T12:21:24;1999.90;;;763.58;;
5774;SDS011;2913;51.120;6.772;2023-10-08T12:23:59;1999.90;;;729.03;;
5774;SDS011;2913;51.120;6.772;2023-10-08T12:26:30;1999.90;;;740.60;;
5774;SDS011;2913;51.120;6.772;2023-10-08T12:28:58;1999.90;;;762.30;;
5774;SDS011;2913;51.120;6.772;2023-10-08T12:31:28;1999.90;;;728.75;;
5774;SDS011;2913;51.120;6.772;2023-10-08T12:33:54;1999.90;;;732.65;;
5774;SDS011;2913;51.120;6.772;2023-10-08T12:36:22;1999.90;;;734.55;;
5774;SDS011;2913;51.120;6.772;2023-10-08T12:38:51;1999.90;;;743.47;;
5774;SDS011;2913;51.120;6.772;2023-10-08T12:41:23;1999.90;;;770.65;;
5774;SDS011;2913;51.120;6.772;2023-10-08T12:43:51;1999.90;;;732.00;;
5774;SDS011;2913;51.120;6.772;2023-10-08T12:46:18;1999.90;;;730.05;;
5774;SDS011;2913;51.120;6.772;2023-10-08T12:48:52;1999.90;;;732.70;;
5774;SDS011;2913;51.120;6.772;2023-10-08T12:51:22;1999.90;;;722.20;;
5774;SDS011;2913;51.120;6.772;2023-10-08T12:53:49;1999.90;;;718.10;;
5774;SDS011;2913;51.120;6.772;2023-10-08T12:56:20;1999.90;;;721.97;;
5774;SDS011;2913;51.120;6.772;2023-10-08T12:58:56;1999.90;;;728.45;;
5774;SDS011;2913;51.120;6.772;2023-10-08T13:01:23;1999.90;;;730.33;;
5774;SDS011;2913;51.120;6.772;2023-10-08T13:03:48;1999.90;;;733.47;;
5774;SDS011;2913;51.120;6.772;2023-10-08T13:06:15;1999.90;;;734.17;;
5774;SDS011;2913;51.120;6.772;2023-10-08T13:08:49;1999.90;;;734.33;;
5774;SDS011;2913;51.120;6.772;2023-10-08T13:11:17;1999.90;;;735.42;;
5774;SDS011;2913;51.120;6.772;2023-10-08T13:13:47;1999.90;;;736.33;;
5774;SDS011;2913;51.120;6.772;2023-10-08T13:16:16;1999.90;;;740.00;;
5774;SDS011;2913;51.120;6.772;2023-10-08T13:18:42;1999.90;;;744.65;;
5774;SDS011;2913;51.120;6.772;2023-10-08T13:21:10;1999.90;;;732.58;;
5774;SDS011;2913;51.120;6.772;2023-10-08T13:23:36;1999.90;;;732.30;;
5774;SDS011;2913;51.120;6.772;2023-10-08T13:26:02;1999.90;;;730.83;;
5774;SDS011;2913;51.120;6.772;2023-10-08T13:28:34;1999.90;;;737.22;;
5774;SDS011;2913;51.120;6.772;2023-10-08T13:31:01;1999.90;;;737.50;;
5774;SDS011;2913;51.120;6.772;2023-10-08T13:33:38;1999.90;;;735.53;;
5774;SDS011;2913;51.120;6.772;2023-10-08T13:36:05;1999.90;;;732.30;;
5774;SDS011;2913;51.120;6.772;2023-10-08T13:38:37;1999.90;;;733.60;;
5774;SDS011;2913;51.120;6.772;2023-10-08T13:41:06;1999.90;;;730.60;;
5774;SDS011;2913;51.120;6.772;2023-10-08T13:43:43;1999.90;;;733.78;;
5774;SDS011;2913;51.120;6.772;2023-10-08T13:46:16;1999.90;;;736.25;;
5774;SDS011;2913;51.120;6.772;2023-10-08T13:48:50;1999.90;;;741.33;;
5774;SDS011;2913;51.120;6.772;2023-10-08T13:51:16;1999.90;;;739.90;;
5774;SDS011;2913;51.120;6.772;2023-10-08T13:56:19;1999.90;;;736.75;;
5774;SDS011;2913;51.120;6.772;2023-10-08T13:58:49;1999.90;;;746.47;;
5774;SDS011;2913;51.120;6.772;2023-10-08T14:01:22;1999.90;;;754.92;;
5774;SDS011;2913;51.120;6.772;2023-10-08T14:03:50;1999.90;;;787.55;;
5774;SDS011;2913;51.120;6.772;2023-10-08T14:06:23;1999.90;;;756.22;;
5774;SDS011;2913;51.120;6.772;2023-10-08T14:08:50;1999.90;;;767.47;;
5774;SDS011;2913;51.120;6.772;2023-10-08T14:11:21;1999.90;;;775.35;;
5774;SDS011;2913;51.120;6.772;2023-10-08T14:13:54;1999.90;;;746.30;;
5774;SDS011;2913;51.120;6.772;2023-10-08T14:16:27;1999.90;;;742.90;;
5774;SDS011;2913;51.120;6.772;2023-10-08T14:18:57;1999.90;;;748.55;;
5774;SDS011;2913;51.120;6.772;2023-10-08T14:21:24;1999.90;;;749.60;;
5774;SDS011;2913;51.120;6.772;2023-10-08T14:23:55;1999.90;;;743.78;;
5774;SDS011;2913;51.120;6.772;2023-10-08T14:26:27;1999.90;;;746.28;;
5774;SDS011;2913;51.120;6.772;2023-10-08T14:29:00;1999.90;;;759.50;;
5774;SDS011;2913;51.120;6.772;2023-10-08T14:31:32;1999.90;;;764.97;;
5774;SDS011;2913;51.120;6.772;2023-10-08T14:33:58;1999.90;;;765.58;;
5774;SDS011;2913;51.120;6.772;2023-10-08T14:36:48;1999.90;;;771.67;;
5774;SDS011;2913;51.120;6.772;2023-10-08T14:39:33;1999.90;;;769.88;;
5774;SDS011;2913;51.120;6.772;2023-10-08T14:42:20;1999.90;;;771.83;;
5774;SDS011;2913;51.120;6.772;2023-10-08T14:45:04;1999.90;;;765.97;;
5774;SDS011;2913;51.120;6.772;2023-10-08T14:47:38;1999.90;;;762.65;;
5774;SDS011;2913;51.120;6.772;2023-10-08T14:50:04;1999.90;;;765.72;;
5774;SDS011;2913;51.120;6.772;2023-10-08T14:52:33;1999.90;;;743.50;;
5774;SDS011;2913;51.120;6.772;2023-10-08T14:55:01;1999.90;;;713.13;;
5774;SDS011;2913;51.120;6.772;2023-10-08T14:57:26;1999.90;;;719.50;;
5774;SDS011;2913;51.120;6.772;2023-10-08T14:59:54;1999.90;;;721.72;;
5774;SDS011;2913;51.120;6.772;2023-10-08T15:02:21;1999.90;;;718.50;;
5774;SDS011;2913;51.120;6.772;2023-10-08T15:04:47;1999.90;;;717.95;;
5774;SDS011;2913;51.120;6.772;2023-10-08T15:07:12;1999.90;;;719.75;;
5774;SDS011;2913;51.120;6.772;2023-10-08T15:09:43;1999.90;;;714.47;;
5774;SDS011;2913;51.120;6.772;2023-10-08T15:12:09;1999.90;;;715.22;;
5774;SDS011;2913;51.120;6.772;2023-10-08T15:14:41;1999.90;;;714.00;;
5774;SDS011;2913;51.120;6.772;2023-10-08T15:17:07;1999.90;;;718.58;;
5774;SDS011;2913;51.120;6.772;2023-10-08T15:19:33;1999.90;;;719.72;;